Data for 03/28/2017

Time Sea-Level Adjusted Pressure Absolute Pressure Temperature Relative Humidity Dew Point   
(mb) (inHg) (mb) (inHg) (C) (F) (%) (C) (F)
00:05 1020 30.12 849 25.07 3.1 37.6 68 -2.1 28.2
00:10 1020 30.12 849 25.07 3.2 37.7 67 -2.4 27.7
00:15 1020 30.12 849 25.07 3.2 37.8 66 -2.5 27.5
00:20 1020 30.12 849 25.07 3.2 37.7 66 -2.6 27.3
00:25 1020 30.12 849 25.07 3.2 37.7 65 -2.7 27.2
00:30 1020 30.12 849 25.07 3.1 37.6 64 -3.1 26.3
00:35 1020 30.12 849 25.07 3.1 37.5 64 -3.1 26.4
00:40 1020 30.12 849 25.07 3 37.5 62 -3.5 25.7
00:45 1020 30.12 849 25.07 3 37.4 62 -3.5 25.7
00:50 1020 30.12 849 25.07 3 37.4 61 -3.8 25.2
00:55 1020 30.12 849 25.07 3 37.4 61 -3.7 25.3
01:00 1020 30.12 849 25.07 3 37.3 63 -3.3 26
01:05 1020 30.12 849 25.07 2.9 37.2 65 -3.1 26.3
01:10 1020 30.12 849 25.07 2.6 36.7 65 -3.3 26
01:15 1020 30.12 849 25.07 2.6 36.6 65 -3.3 26
01:20 1020 30.12 849 25.07 2.6 36.6 64 -3.6 25.5
01:25 1020 30.12 849 25.07 2.6 36.8 63 -3.7 25.4
01:30 1020 30.12 849 25.07 2.7 36.8 65 -3.2 26.3
01:35 1020 30.12 849 25.07 2.5 36.4 68 -2.8 27
01:40 1020 30.12 849 25.07 2.3 36.2 70 -2.5 27.5
01:45 1020 30.12 849 25.07 2.4 36.3 72 -2.2 28
01:50 1020 30.12 849 25.07 2.5 36.4 71 -2.3 27.8
01:55 1020 30.12 849 25.07 2.4 36.4 70 -2.6 27.4
02:00 1020 30.12 849 25.07 2.4 36.4 69 -2.7 27.1
02:05 1020 30.12 850 25.1 2.4 36.3 68 -2.9 26.8
02:10 1020 30.12 850 25.1 2.3 36.1 69 -2.9 26.8
02:15 1020 30.12 850 25.1 2.3 36.1 69 -2.8 27
02:20 1020 30.12 850 25.1 2.3 36.1 70 -2.7 27.1
02:25 1021 30.15 850 25.1 2.3 36.1 69 -2.7 27.1
02:30 1021 30.15 850 25.1 2.3 36.1 70 -2.7 27.2
02:35 1021 30.15 850 25.1 2.3 36.1 71 -2.5 27.5
02:40 1021 30.15 850 25.1 2.2 36 71 -2.5 27.5
02:45 1021 30.15 850 25.1 2.2 36 71 -2.5 27.5
02:50 1021 30.15 850 25.1 2.2 36 71 -2.5 27.4
02:55 1021 30.15 850 25.1 2.2 36 70 -2.7 27.1
03:00 1021 30.15 850 25.1 2.2 36 70 -2.7 27.1
03:05 1021 30.15 850 25.1 2.3 36.1 66 -3.4 25.9
03:10 1021 30.15 850 25.1 2.3 36.1 64 -3.9 25
03:15 1021 30.15 850 25.1 2.2 36 62 -4.3 24.2
03:20 1021 30.15 850 25.1 2.2 36 62 -4.4 24.1
03:25 1021 30.15 850 25.1 2.1 35.8 62 -4.4 24
03:30 1021 30.15 850 25.1 2 35.7 62 -4.6 23.8
03:35 1021 30.15 851 25.13 2 35.6 62 -4.5 24
03:40 1021 30.15 851 25.13 1.9 35.5 63 -4.3 24.3
03:45 1021 30.15 851 25.13 1.9 35.4 64 -4.2 24.5
03:50 1021 30.15 851 25.13 1.9 35.3 63 -4.5 24
03:55 1022 30.18 851 25.13 1.8 35.3 64 -4.3 24.2
04:00 1022 30.18 851 25.13 1.8 35.3 63 -4.5 24
04:05 1022 30.18 851 25.13 1.8 35.3 63 -4.4 24
04:10 1022 30.18 851 25.13 1.8 35.2 64 -4.4 24.1
04:15 1022 30.18 851 25.13 1.7 35.1 64 -4.4 24.1
04:20 1022 30.18 851 25.13 1.6 34.9 64 -4.4 24.1
04:25 1022 30.18 851 25.13 1.5 34.8 66 -4.1 24.6
04:30 1022 30.18 851 25.13 1.4 34.4 66 -4.3 24.3
04:35 1022 30.18 851 25.13 1.2 34.2 67 -4.3 24.2
04:40 1022 30.18 851 25.13 1.2 34.1 66 -4.5 23.9
04:45 1022 30.18 851 25.13 1.2 34.2 65 -4.6 23.8
04:50 1022 30.18 851 25.13 1.3 34.3 65 -4.6 23.7
04:55 1022 30.18 851 25.13 1.4 34.5 64 -4.6 23.7
05:00 1022 30.18 851 25.13 1.4 34.6 63 -4.8 23.4
05:05 1022 30.18 851 25.13 1.5 34.6 64 -4.6 23.7
05:10 1022 30.18 851 25.13 1.5 34.7 63 -4.7 23.6
05:15 1022 30.18 851 25.13 1.5 34.6 64 -4.7 23.5
05:20 1022 30.18 851 25.13 1.5 34.7 64 -4.5 23.8
05:25 1022 30.18 852 25.16 1.5 34.7 64 -4.7 23.6
05:30 1022 30.18 852 25.16 1.5 34.6 65 -4.3 24.2
05:35 1022 30.18 852 25.16 1.4 34.5 66 -4.3 24.2
05:40 1022 30.18 852 25.16 1.4 34.5 66 -4.3 24.3
05:45 1022 30.18 852 25.16 1.3 34.4 66 -4.4 24.1
05:50 1022 30.18 852 25.16 1.3 34.4 66 -4.3 24.2
05:55 1022 30.18 852 25.16 1.3 34.3 66 -4.4 24
06:00 1022 30.18 852 25.16 1.1 34.1 66 -4.5 23.8
06:05 1022 30.18 852 25.16 1 33.8 65 -4.8 23.3
06:10 1022 30.18 852 25.16 1 33.9 66 -4.6 23.7
06:15 1022 30.18 852 25.16 0.9 33.6 67 -4.5 23.9
06:20 1022 30.18 852 25.16 0.8 33.5 66 -4.8 23.4
06:25 1022 30.18 852 25.16 0.8 33.4 66 -4.9 23.2
06:30 1022 30.18 852 25.16 0.8 33.4 67 -4.6 23.6
06:35 1022 30.18 852 25.16 0.7 33.3 68 -4.5 23.9
06:40 1022 30.18 852 25.16 0.9 33.7 68 -4.4 24.1
06:45 1022 30.18 852 25.16 1.3 34.3 66 -4.4 24
06:50 1022 30.18 852 25.16 1.6 34.8 64 -4.5 23.9
06:55 1022 30.18 852 25.16 1.9 35.5 62 -4.5 23.9
07:00 1022 30.18 852 25.16 1.9 35.5 62 -4.6 23.8
07:05 1022 30.18 852 25.16 1.7 35.1 63 -4.5 23.9
07:10 1022 30.18 852 25.16 1.8 35.3 60 -5.1 22.8
07:15 1022 30.18 852 25.16 1.9 35.4 60 -5 22.9
07:20 1023 30.21 852 25.16 2.1 35.9 59 -5 23
07:25 1023 30.21 852 25.16 2.2 35.9 59 -5.1 22.9
07:30 1023 30.21 852 25.16 2.1 35.7 57 -5.5 22.1
07:35 1023 30.21 852 25.16 2.4 36.3 57 -5.2 22.7
07:40 1023 30.21 852 25.16 3 37.4 54 -5.3 22.4
07:45 1023 30.21 852 25.16 3.2 37.7 55 -4.9 23.2
07:50 1023 30.21 852 25.16 3.2 37.7 55 -4.9 23.1
07:55 1023 30.21 852 25.16 3 37.4 56 -4.9 23.2
08:00 1023 30.21 852 25.16 3.1 37.6 54 -5.3 22.5
08:05 1023 30.21 852 25.16 4 39.1 53 -4.8 23.4
08:10 1023 30.21 852 25.16 4.1 39.4 52 -5 23.1
08:15 1023 30.21 852 25.16 4.7 40.5 50 -4.8 23.3
08:20 1023 30.21 852 25.16 5.1 41.2 48 -5.1 22.8
08:25 1023 30.21 852 25.16 5.1 41.2 43 -6.4 20.6
08:30 1023 30.21 852 25.16 5.1 41.2 40 -7.3 18.8
08:35 1023 30.21 852 25.16 5.3 41.6 41 -6.8 19.7
08:40 1023 30.21 852 25.16 5 41 41 -7.1 19.2
08:45 1023 30.21 852 25.16 5.1 41.3 39 -7.6 18.4
08:50 1023 30.21 852 25.16 5.3 41.5 39 -7.6 18.2
08:55 1023 30.21 852 25.16 6 42.9 37 -7.4 18.6
09:00 1023 30.21 852 25.16 6.6 44 35 -7.7 18.2
09:05 1023 30.21 852 25.16 6.4 43.5 38 -6.9 19.6
09:10 1023 30.21 852 25.16 5.7 42.3 41 -6.6 20.1
09:15 1023 30.21 852 25.16 4.7 40.4 43 -6.7 19.9
09:20 1023 30.21 852 25.16 4.4 39.9 43 -7.2 19
09:25 1023 30.21 852 25.16 4.5 40.2 42 -7.3 18.8
09:30 1023 30.21 852 25.16 4.4 40 42 -7.4 18.6
09:35 1023 30.21 852 25.16 4.4 39.9 42 -7.6 18.3
09:40 1023 30.21 852 25.16 5 40.9 40 -7.4 18.7
09:45 1023 30.21 852 25.16 5 41 41 -7.2 19
09:50 1023 30.21 852 25.16 5 41 44 -6.2 20.8
09:55 1023 30.21 852 25.16 4.9 40.8 45 -6.1 20.9
10:00 1023 30.21 852 25.16 5 41 43 -6.4 20.5
10:05 1023 30.21 852 25.16 5 41 44 -6.1 21
10:10 1023 30.21 852 25.16 5.1 41.3 43 -6.3 20.6
10:15 1023 30.21 852 25.16 5.7 42.2 40 -7 19.4
10:20 1023 30.21 852 25.16 5.8 42.5 38 -7.5 18.6
10:25 1023 30.21 852 25.16 5.8 42.5 38 -7.4 18.7
10:30 1023 30.21 852 25.16 5.9 42.6 35 -8.6 16.5
10:35 1023 30.21 852 25.16 5.8 42.5 36 -8.2 17.2
10:40 1023 30.21 852 25.16 5.9 42.6 38 -7.3 18.9
10:45 1023 30.21 852 25.16 5.6 42.1 39 -7.4 18.7
10:50 1023 30.21 852 25.16 6.5 43.6 36 -7.6 18.3
10:55 1023 30.21 852 25.16 7.5 45.5 32 -8.2 17.3
11:00 1023 30.21 852 25.16 7.7 45.8 31 -8.3 17
11:05 1023 30.21 852 25.16 7.1 44.8 32 -8.7 16.4
11:10 1023 30.21 852 25.16 6.9 44.4 33 -8.3 17.1
11:15 1022 30.18 852 25.16 6.5 43.8 33 -8.5 16.6
11:20 1023 30.21 852 25.16 6.3 43.3 35 -8.2 17.3
11:25 1022 30.18 852 25.16 6.5 43.7 33 -8.6 16.6
11:30 1022 30.18 852 25.16 7.1 44.7 32 -8.7 16.3
11:35 1022 30.18 852 25.16 7.7 45.8 32 -8 17.6
11:40 1022 30.18 852 25.16 8.1 46.6 31 -8.2 17.3
11:45 1022 30.18 852 25.16 7.5 45.6 30 -8.8 16.2
11:50 1022 30.18 852 25.16 7.6 45.6 31 -8.7 16.3
11:55 1022 30.18 851 25.13 7.8 46 30 -8.7 16.3
12:00 1022 30.18 851 25.13 8 46.4 30 -8.5 16.8
12:05 1022 30.18 851 25.13 6.3 43.3 33 -8.9 15.9
12:10 1022 30.18 851 25.13 6.1 43 32 -9.4 15.1
12:15 1022 30.18 851 25.13 6.6 43.9 31 -9.3 15.3
12:20 1022 30.18 851 25.13 7.3 45.1 30 -9 15.9
12:25 1022 30.18 851 25.13 7.4 45.2 30 -9 15.8
12:30 1022 30.18 851 25.13 8.2 46.8 28 -9 15.7
12:35 1022 30.18 851 25.13 8 46.4 30 -8.7 16.3
12:40 1022 30.18 851 25.13 7.6 45.7 30 -9 15.7
12:45 1022 30.18 851 25.13 7.7 45.9 28 -9.6 14.7
12:50 1022 30.18 851 25.13 8.1 46.7 28 -9.3 15.3
12:55 1022 30.18 851 25.13 8.3 46.9 28 -9.3 15.3
13:00 1022 30.18 851 25.13 8.4 47.1 28 -9.3 15.3
13:05 1022 30.18 851 25.13 8.4 47 28 -8.9 16
13:10 1022 30.18 851 25.13 8.8 47.8 27 -9.1 15.7
13:15 1022 30.18 851 25.13 8.8 47.9 27 -9.3 15.3
13:20 1022 30.18 851 25.13 8.9 48.1 27 -9.1 15.7
13:25 1022 30.18 851 25.13 9.1 48.4 26 -9.3 15.2
13:30 1022 30.18 851 25.13 9 48.3 26 -9.7 14.6
13:35 1022 30.18 851 25.13 9.5 49 25 -9.6 14.7
13:40 1021 30.15 851 25.13 9.8 49.7 26 -8.8 16.1
13:45 1021 30.15 851 25.13 9.3 48.7 27 -8.8 16.2
13:50 1021 30.15 850 25.1 8.6 47.5 27 -9.2 15.4
13:55 1021 30.15 850 25.1 9.4 48.9 26 -9.2 15.5
14:00 1021 30.15 850 25.1 10 50 25 -9.4 15.2
14:05 1021 30.15 850 25.1 10.3 50.5 25 -8.9 16.1
14:10 1021 30.15 850 25.1 10.2 50.3 25 -9 15.9
14:15 1021 30.15 850 25.1 9.8 49.6 27 -8.4 16.9
14:20 1021 30.15 850 25.1 8.2 46.7 29 -8.9 16
14:25 1021 30.15 850 25.1 9 48.1 27 -9.2 15.4
14:30 1021 30.15 850 25.1 9.4 49 27 -8.6 16.5
14:35 1021 30.15 850 25.1 9.4 48.8 27 -8.7 16.4
14:40 1021 30.15 850 25.1 9.2 48.6 26 -9.1 15.5
14:45 1021 30.15 850 25.1 9 48.2 27 -9 15.8
14:50 1021 30.15 850 25.1 9.1 48.4 27 -8.9 16
14:55 1021 30.15 850 25.1 9.2 48.6 27 -9 15.8
15:00 1021 30.15 850 25.1 9.5 49.1 27 -8.7 16.3
15:05 1021 30.15 850 25.1 9.7 49.4 27 -8.4 16.9
15:10 1021 30.15 850 25.1 9.9 49.7 27 -8.3 17
15:15 1021 30.15 850 25.1 10.5 50.9 26 -8.3 17.1
15:20 1021 30.15 850 25.1 11 51.9 25 -8.3 17
15:25 1021 30.15 850 25.1 11.3 52.4 25 -8.2 17.2
15:30 1021 30.15 850 25.1 11.1 52 25 -8 17.6
15:35 1021 30.15 850 25.1 9.5 49 29 -7.9 17.8
15:40 1021 30.15 850 25.1 9.2 48.5 28 -8.2 17.2
15:45 1021 30.15 850 25.1 9.1 48.4 29 -8 17.6
15:50 1020 30.12 850 25.1 9.6 49.3 27 -8.4 16.8
15:55 1020 30.12 850 25.1 10.5 50.8 26 -8.3 17
16:00 1020 30.12 850 25.1 10.6 51.1 26 -8.2 17.2
16:05 1020 30.12 850 25.1 9.9 49.7 27 -8.1 17.4
16:10 1020 30.12 850 25.1 9.5 49.1 27 -8.7 16.4
16:15 1020 30.12 850 25.1 10.7 51.2 25 -8.4 16.8
16:20 1020 30.12 849 25.07 11 51.7 25 -8.3 17.1
16:25 1020 30.12 850 25.1 11.1 51.9 25 -8.3 17
16:30 1020 30.12 850 25.1 11.2 52.2 24 -8.4 16.9
16:35 1020 30.12 849 25.07 10.8 51.4 26 -8 17.6
16:40 1020 30.12 849 25.07 10.6 51.1 25 -8.4 17
16:45 1020 30.12 849 25.07 10.8 51.4 26 -8.2 17.3
16:50 1020 30.12 849 25.07 10.5 50.9 27 -7.8 17.9
16:55 1020 30.12 849 25.07 9.5 49.2 27 -8.4 16.9
17:00 1020 30.12 849 25.07 9.8 49.6 28 -7.9 17.8
17:05 1020 30.12 849 25.07 9.4 48.8 28 -8.2 17.2
17:10 1020 30.12 849 25.07 9.2 48.6 28 -8.4 16.9
17:15 1020 30.12 849 25.07 9.2 48.5 28 -8.3 17
17:20 1020 30.12 849 25.07 9.7 49.4 27 -8.5 16.7
17:25 1020 30.12 849 25.07 10.3 50.6 26 -8.3 17.1
17:30 1020 30.12 849 25.07 10 50.1 27 -8 17.5
17:35 1020 30.12 849 25.07 10 50 27 -8.2 17.3
17:40 1020 30.12 849 25.07 9.8 49.6 29 -7.4 18.6
17:45 1020 30.12 849 25.07 9.6 49.2 28 -8.2 17.3
17:50 1020 30.12 850 25.1 9.4 49 28 -8.2 17.2
17:55 1020 30.12 850 25.1 9.5 49 28 -8.3 17
18:00 1020 30.12 850 25.1 9.4 49 28 -8.1 17.4
18:05 1020 30.12 850 25.1 9.1 48.3 29 -8.1 17.4
18:10 1020 30.12 850 25.1 8.9 48 29 -8.1 17.4
18:15 1020 30.12 850 25.1 8.5 47.3 30 -8 17.5
18:20 1020 30.12 850 25.1 8.4 47.1 30 -8.1 17.4
18:25 1020 30.12 850 25.1 8.3 46.9 30 -8.1 17.5
18:30 1020 30.12 850 25.1 8.1 46.7 30 -8.2 17.2
18:35 1020 30.12 850 25.1 8.1 46.7 31 -8.1 17.4
18:40 1020 30.12 850 25.1 8.1 46.6 31 -8 17.6
18:45 1020 30.12 850 25.1 8.1 46.6 31 -7.9 17.7
18:50 1021 30.15 850 25.1 8.1 46.5 32 -7.8 18
18:55 1021 30.15 850 25.1 8.1 46.6 31 -7.9 17.9
19:00 1020 30.12 850 25.1 8 46.4 31 -7.9 17.7
19:05 1020 30.12 850 25.1 7.7 45.8 39 -5.3 22.5
19:10 1021 30.15 850 25.1 6.8 44.3 43 -5 23
19:15 1021 30.15 850 25.1 6.3 43.3 47 -4.3 24.2
19:20 1021 30.15 850 25.1 5.6 42.1 50 -3.9 25
19:25 1021 30.15 850 25.1 5.2 41.3 53 -3.7 25.3
19:30 1021 30.15 850 25.1 4.9 40.8 54 -3.6 25.4
19:35 1021 30.15 850 25.1 4.8 40.7 56 -3.2 26.2
19:40 1021 30.15 850 25.1 4.8 40.7 57 -3 26.7
19:45 1021 30.15 850 25.1 4.7 40.4 57 -3 26.6
19:50 1021 30.15 850 25.1 4.5 40.1 58 -3 26.6
19:55 1021 30.15 850 25.1 4.4 39.9 58 -3.1 26.5
20:00 1021 30.15 850 25.1 4.3 39.8 59 -3 26.6
20:05 1021 30.15 850 25.1 4.4 39.8 58 -3.1 26.5
20:10 1021 30.15 850 25.1 4.5 40 58 -3 26.6
20:15 1021 30.15 850 25.1 4.5 40.1 58 -3 26.6
20:20 1021 30.15 850 25.1 4.6 40.2 57 -3.1 26.4
20:25 1021 30.15 850 25.1 4.4 39.9 58 -3.2 26.3
20:30 1021 30.15 850 25.1 4.3 39.8 58 -3.3 26.1
20:35 1021 30.15 850 25.1 4.4 39.8 58 -3.3 26.1
20:40 1021 30.15 850 25.1 4.4 39.8 58 -3.3 26.1
20:45 1021 30.15 850 25.1 4.2 39.5 58 -3.3 26.1
20:50 1021 30.15 850 25.1 3.8 38.9 60 -3.2 26.2
20:55 1021 30.15 850 25.1 3.5 38.4 61 -3.2 26.3
21:00 1021 30.15 850 25.1 3.4 38.1 62 -3.2 26.3
21:05 1021 30.15 850 25.1 3.5 38.3 60 -3.6 25.4
21:10 1021 30.15 850 25.1 3.8 38.8 59 -3.6 25.6
21:15 1021 30.15 850 25.1 4 39.2 57 -3.7 25.3
21:20 1021 30.15 850 25.1 4.1 39.4 55 -4.1 24.6
21:25 1021 30.15 850 25.1 4 39.3 55 -4.2 24.4
21:30 1021 30.15 850 25.1 4 39.2 55 -4.3 24.2
21:35 1021 30.15 850 25.1 4 39.2 52 -5 22.9
21:40 1021 30.15 850 25.1 4.1 39.3 52 -5 22.9
21:45 1021 30.15 850 25.1 4.1 39.3 50 -5.5 22.1
21:50 1021 30.15 850 25.1 4 39.3 50 -5.4 22.2
21:55 1021 30.15 850 25.1 4 39.2 50 -5.5 22.1
22:00 1021 30.15 850 25.1 4 39.1 49 -5.8 21.5
22:05 1021 30.15 851 25.13 4 39.2 49 -5.9 21.4
22:10 1021 30.15 851 25.13 4 39.3 48 -6 21.1
22:15 1021 30.15 851 25.13 4.2 39.6 47 -6 21.2
22:20 1021 30.15 851 25.13 4 39.1 51 -5.2 22.6
22:25 1021 30.15 851 25.13 3.8 38.8 50 -5.7 21.7
22:30 1021 30.15 851 25.13 4 39.2 49 -5.7 21.7
22:35 1021 30.15 850 25.1 4 39.3 49 -5.8 21.5
22:40 1021 30.15 850 25.1 4.1 39.4 48 -5.9 21.3
22:45 1021 30.15 850 25.1 4.2 39.6 46 -6.2 20.8
22:50 1021 30.15 850 25.1 4.3 39.7 46 -6.3 20.7
22:55 1021 30.15 850 25.1 4.4 39.9 46 -6.2 20.9
23:00 1021 30.15 850 25.1 4.2 39.6 48 -5.9 21.3
23:05 1021 30.15 851 25.13 3.9 39.1 49 -5.8 21.5
23:10 1021 30.15 851 25.13 3.8 38.8 49 -6 21.1
23:15 1021 30.15 851 25.13 3.6 38.6 51 -5.5 22.1
23:20 1021 30.15 851 25.13 3.4 38.2 52 -5.4 22.3
23:25 1021 30.15 851 25.13 3.2 37.8 53 -5.5 22.2
23:30 1021 30.15 851 25.13 3.3 37.9 53 -5.4 22.4
23:35 1021 30.15 851 25.13 3.1 37.6 54 -5.2 22.6
23:40 1021 30.15 851 25.13 2.8 37.1 55 -5.4 22.3
23:45 1021 30.15 851 25.13 2.6 36.8 55 -5.5 22.2
23:50 1021 30.15 851 25.13 2.4 36.4 56 -5.5 22.1
23:55 1021 30.15 851 25.13 2.4 36.2 56 -5.5 22
24:00 1021 30.15 851 25.13 2.5 36.4 57 -5.2 22.6